Time;durP1;ratioP1;P1;durP2;ratioP2;P2;SDS_P1;SDS_P2;PMS_P1;PMS_P2;Temp;Humidity;BMP_temperature;BMP_pressure;BME280_temperature;BME280_humidity;BME280_pressure;Samples;Min_cycle;Max_cycle;Signal;HPM_P1;HPM_P2
2023/11/21 00:01:41;;;;;;;;;;;;;;;-4.70;53.06;99472.34;5029813;28;20024;-69
2023/11/21 00:04:11;;;;;;;;;;;;;;;-4.67;53.23;99476.69;5047161;28;20215;-70
2023/11/21 00:06:37;;;;;;;;;;;;;;;-4.70;53.13;99474.00;5032885;28;20470;-69
2023/11/21 00:09:05;;;;;;;;;;;;;;;-4.72;53.33;99473.03;5030351;28;20118;-70
2023/11/21 00:11:31;;;;;;;;;;;;;;;-4.74;52.80;99467.03;5012185;28;19975;-71
2023/11/21 00:14:00;;;;;;;;;;;;;;;-4.61;53.30;99465.94;5025349;28;19921;-68
2023/11/21 00:16:28;;;;;;;;;;;;;;;-4.59;52.96;99469.41;5014065;28;19928;-69
2023/11/21 00:18:56;;;;;;;;;;;;;;;-4.58;52.64;99466.97;5009449;28;19985;-68
2023/11/21 00:21:25;;;;;;;;;;;;;;;-4.59;52.82;99462.69;5028614;28;19932;-69
2023/11/21 00:23:53;;;;;;;;;;;;;;;-4.63;52.51;99473.50;5030823;28;19921;-70
2023/11/21 00:26:19;;;;;;;;;;;;;;;-4.55;53.22;99469.66;5029360;28;20036;-69
2023/11/21 00:28:52;;;;;;;;;;;;;;;-4.53;52.39;99467.16;5029603;28;20008;-68
2023/11/21 00:31:21;;;;;;;;;;;;;;;-4.50;53.11;99466.44;5007767;28;20100;-68
2023/11/21 00:33:47;;;;;;;;;;;;;;;-4.51;52.80;99469.75;5026616;28;19921;-68
2023/11/21 00:36:20;;;;;;;;;;;;;;;-4.46;52.75;99469.19;5029350;28;19931;-68
2023/11/21 00:38:48;;;;;;;;;;;;;;;-4.44;53.04;99471.81;5030257;28;19964;-71
2023/11/21 00:41:14;;;;;;;;;;;;;;;-4.36;52.77;99472.16;5028895;28;19936;-68
2023/11/21 00:43:39;;;;;;;;;;;;;;;-4.31;52.60;99463.97;5024242;28;20675;-69
2023/11/21 00:46:08;;;;;;;;;;;;;;;-4.39;52.55;99468.66;5021233;28;19924;-65
2023/11/21 00:48:34;;;;;;;;;;;;;;;-4.30;53.04;99465.66;5041849;28;19971;-63
2023/11/21 00:51:00;;;;;;;;;;;;;;;-4.50;52.64;99431.75;5025983;28;19925;-66
2023/11/21 00:53:26;;;;;;;;;;;;;;;-4.29;52.78;99469.09;5036487;28;19921;-67
2023/11/21 00:55:56;;;;;;;;;;;;;;;-4.32;52.37;99472.38;5035201;28;19932;-70
2023/11/21 00:58:25;;;;;;;;;;;;;;;-4.33;52.23;99473.19;5012245;28;19921;-69
2023/11/21 01:00:51;;;;;;;;;;;;;;;-4.26;52.33;99471.78;5040023;28;19921;-68
2023/11/21 01:03:19;;;;;;;;;;;;;;;-4.22;52.56;99468.59;5027750;28;19921;-69
2023/11/21 01:05:46;;;;;;;;;;;;;;;-4.24;52.07;99467.63;5010026;28;19928;-69
2023/11/21 01:08:12;;;;;;;;;;;;;;;-4.21;52.54;99474.53;5030008;28;19952;-69
2023/11/21 01:10:37;;;;;;;;;;;;;;;-4.32;52.43;99471.50;5029393;28;20461;-69
2023/11/21 01:13:07;;;;;;;;;;;;;;;-4.40;52.22;99464.38;5044576;28;20332;-69
2023/11/21 01:15:34;;;;;;;;;;;;;;;-4.46;51.93;99474.28;5029147;28;19925;-70
2023/11/21 01:17:59;;;;;;;;;;;;;;;-4.46;52.02;99470.84;5018709;28;20138;-69
2023/11/21 01:20:26;;;;;;;;;;;;;;;-4.46;51.89;99465.78;5028160;28;19925;-68
2023/11/21 01:22:53;;;;;;;;;;;;;;;-4.45;52.37;99462.44;5029280;28;19921;-69
2023/11/21 01:25:23;;;;;;;;;;;;;;;-4.44;52.38;99456.56;5024471;28;19925;-70
2023/11/21 01:27:49;;;;;;;;;;;;;;;-4.45;52.60;99465.88;5010424;28;19921;-65
2023/11/21 01:30:18;;;;;;;;;;;;;;;-4.57;51.85;99453.47;5024200;28;20011;-66
2023/11/21 01:32:47;;;;;;;;;;;;;;;-4.61;52.05;99455.78;5009863;28;20291;-66
2023/11/21 01:35:13;;;;;;;;;;;;;;;-4.59;52.16;99455.06;5008485;28;19925;-65
2023/11/21 01:37:45;;;;;;;;;;;;;;;-4.63;51.95;99457.41;5026059;28;19932;-66
2023/11/21 01:40:13;;;;;;;;;;;;;;;-4.58;52.36;99461.00;5025751;28;20011;-66
2023/11/21 01:42:41;;;;;;;;;;;;;;;-4.59;51.94;99456.72;4996569;28;19980;-66
2023/11/21 01:45:07;;;;;;;;;;;;;;;-4.56;52.24;99465.38;5027156;28;19936;-66
2023/11/21 01:47:41;;;;;;;;;;;;;;;-4.56;52.30;99459.41;5031707;28;19936;-70
2023/11/21 01:50:07;;;;;;;;;;;;;;;-4.60;52.17;99463.47;5049138;28;20027;-70
2023/11/21 01:52:43;;;;;;;;;;;;;;;-4.54;51.93;99463.78;5033262;28;20382;-71
2023/11/21 01:55:19;;;;;;;;;;;;;;;-4.49;52.09;99470.72;5040766;28;19983;-71
2023/11/21 01:57:46;;;;;;;;;;;;;;;-4.55;51.72;99476.38;5047955;28;19925;-69
2023/11/21 02:00:15;;;;;;;;;;;;;;;-4.61;52.00;99474.44;5023914;28;19921;-70
2023/11/21 02:02:48;;;;;;;;;;;;;;;-4.63;52.15;99483.66;5017523;28;19979;-72
2023/11/21 02:05:18;;;;;;;;;;;;;;;-4.55;52.23;99471.31;5010069;28;19963;-69
2023/11/21 02:07:47;;;;;;;;;;;;;;;-4.55;52.31;99469.66;5032562;28;19921;-70
2023/11/21 02:10:14;;;;;;;;;;;;;;;-4.50;51.94;99466.44;5034898;28;20243;-70
2023/11/21 02:12:44;;;;;;;;;;;;;;;-4.45;52.07;99464.97;5033636;28;19925;-72
2023/11/21 02:15:19;;;;;;;;;;;;;;;-4.46;52.02;99466.66;5033825;28;19925;-69
2023/11/21 02:17:53;;;;;;;;;;;;;;;-4.45;51.47;99467.53;5032863;28;19925;-70
2023/11/21 02:20:29;;;;;;;;;;;;;;;-4.49;51.68;99466.53;4999798;28;21599;-70
2023/11/21 02:23:01;;;;;;;;;;;;;;;-4.47;52.00;99466.56;5033992;28;19925;-69
2023/11/21 02:25:27;;;;;;;;;;;;;;;-4.56;51.90;99469.56;4996744;28;19921;-67
2023/11/21 02:27:54;;;;;;;;;;;;;;;-4.51;51.88;99469.75;5033349;28;19921;-70
2023/11/21 02:30:21;;;;;;;;;;;;;;;-4.49;51.90;99475.78;5033048;28;19951;-70
2023/11/21 02:32:59;;;;;;;;;;;;;;;-4.52;51.84;99471.44;5049454;28;19921;-69
2023/11/21 02:35:30;;;;;;;;;;;;;;;-4.54;51.89;99471.41;5028273;28;20053;-70
2023/11/21 02:38:03;;;;;;;;;;;;;;;-4.51;52.12;99468.13;5032958;28;19925;-70
2023/11/21 02:40:29;;;;;;;;;;;;;;;-4.50;51.62;99464.78;5049222;28;19921;-69
2023/11/21 02:42:58;;;;;;;;;;;;;;;-4.54;51.89;99467.97;5026539;28;19945;-69
2023/11/21 02:45:24;;;;;;;;;;;;;;;-4.56;52.02;99472.09;5030516;28;19925;-70
2023/11/21 02:47:52;;;;;;;;;;;;;;;-4.58;51.80;99476.25;5047625;28;20415;-68
2023/11/21 02:50:19;;;;;;;;;;;;;;;-4.59;51.74;99479.56;5013587;28;19964;-69
2023/11/21 02:52:48;;;;;;;;;;;;;;;-4.63;51.96;99483.66;5010597;28;19950;-69
2023/11/21 02:55:16;;;;;;;;;;;;;;;-4.63;51.93;99490.41;5014940;28;19921;-68
2023/11/21 02:57:45;;;;;;;;;;;;;;;-4.61;51.77;99497.28;5032218;28;19999;-68
2023/11/21 03:00:16;;;;;;;;;;;;;;;-4.59;52.01;99508.41;5031965;28;19920;-70
2023/11/21 03:02:43;;;;;;;;;;;;;;;-4.59;51.97;99507.50;5030647;28;19980;-68
2023/11/21 03:05:09;;;;;;;;;;;;;;;-4.62;51.96;99504.81;5032993;28;20203;-67
2023/11/21 03:07:39;;;;;;;;;;;;;;;-4.58;52.25;99506.72;5008146;28;19921;-69
2023/11/21 03:10:06;;;;;;;;;;;;;;;-4.53;51.94;99510.34;5031281;28;19929;-68
2023/11/21 03:12:35;;;;;;;;;;;;;;;-4.57;51.73;99513.53;5045522;28;20323;-66
2023/11/21 03:15:01;;;;;;;;;;;;;;;-4.76;52.18;99487.28;5030101;28;20651;-69
2023/11/21 03:17:34;;;;;;;;;;;;;;;-4.62;52.16;99520.06;5045119;28;20295;-69
2023/11/21 03:20:00;;;;;;;;;;;;;;;-4.63;51.39;99514.13;5024476;28;19936;-67
2023/11/21 03:22:26;;;;;;;;;;;;;;;-4.60;52.04;99526.09;5028359;28;20318;-68
2023/11/21 03:24:54;;;;;;;;;;;;;;;-4.52;52.24;99524.78;5011754;28;19920;-68
2023/11/21 03:27:21;;;;;;;;;;;;;;;-4.46;51.76;99527.63;5031508;28;19925;-69
2023/11/21 03:29:48;;;;;;;;;;;;;;;-4.44;51.90;99527.69;5012476;28;19975;-69
2023/11/21 03:32:18;;;;;;;;;;;;;;;-4.45;51.57;99529.38;5032773;28;19928;-68
2023/11/21 03:35:03;;;;;;;;;;;;;;;-4.48;51.72;99528.34;5030930;28;20038;-68
2023/11/21 03:37:32;;;;;;;;;;;;;;;-4.43;51.94;99530.31;5050915;28;19947;-68
2023/11/21 03:40:00;;;;;;;;;;;;;;;-4.47;51.67;99530.09;5044575;28;19982;-73
2023/11/21 03:42:29;;;;;;;;;;;;;;;-4.44;51.63;99526.03;5033995;28;19921;-75
2023/11/21 03:44:58;;;;;;;;;;;;;;;-4.45;51.55;99525.94;5035363;28;19921;-72
2023/11/21 03:47:30;;;;;;;;;;;;;;;-4.41;51.51;99523.63;5016862;28;19932;-71
2023/11/21 03:49:56;;;;;;;;;;;;;;;-4.43;51.41;99529.44;5050302;28;19928;-65
2023/11/21 03:52:21;;;;;;;;;;;;;;;-4.47;51.34;99525.00;5037088;28;19921;-69
2023/11/21 03:54:48;;;;;;;;;;;;;;;-4.46;51.38;99524.19;5051330;28;19921;-73
2023/11/21 03:57:19;;;;;;;;;;;;;;;-4.52;51.53;99522.25;5034117;28;20018;-66
2023/11/21 03:59:45;;;;;;;;;;;;;;;-4.53;51.74;99523.06;5051858;28;19927;-70
2023/11/21 04:02:11;;;;;;;;;;;;;;;-4.50;51.40;99527.38;5013888;28;19925;-67
2023/11/21 04:04:37;;;;;;;;;;;;;;;-4.51;51.55;99518.03;5036831;28;19928;-69
2023/11/21 04:07:03;;;;;;;;;;;;;;;-4.52;51.36;99521.41;5041227;28;19925;-70
2023/11/21 04:09:28;;;;;;;;;;;;;;;-4.54;51.72;99517.13;5036699;28;19985;-71
2023/11/21 04:11:55;;;;;;;;;;;;;;;-4.52;51.35;99517.19;5003732;28;19964;-72
2023/11/21 04:14:22;;;;;;;;;;;;;;;-4.52;51.31;99521.41;5033902;28;19925;-69
2023/11/21 04:16:50;;;;;;;;;;;;;;;-4.49;51.32;99526.59;5035187;28;19968;-70
2023/11/21 04:19:21;;;;;;;;;;;;;;;-4.57;51.00;99519.50;5034582;28;19928;-68
2023/11/21 04:21:47;;;;;;;;;;;;;;;-4.52;51.39;99522.25;5036146;28;19960;-71
2023/11/21 04:24:13;;;;;;;;;;;;;;;-4.53;51.13;99520.50;5017118;28;19921;-69
2023/11/21 04:26:42;;;;;;;;;;;;;;;-4.59;51.29;99526.19;5035560;28;19925;-68
2023/11/21 04:29:07;;;;;;;;;;;;;;;-4.62;51.14;99530.22;5034669;28;19921;-69
2023/11/21 04:31:33;;;;;;;;;;;;;;;-4.75;51.04;99534.72;5034126;28;20011;-67
2023/11/21 04:33:59;;;;;;;;;;;;;;;-4.78;50.95;99533.72;5035310;28;20378;-67
2023/11/21 04:36:26;;;;;;;;;;;;;;;-4.78;51.23;99538.78;5029170;28;19925;-69
2023/11/21 04:38:53;;;;;;;;;;;;;;;-4.85;51.34;99538.50;5035498;28;19925;-68
2023/11/21 04:41:21;;;;;;;;;;;;;;;-4.84;50.82;99544.41;5039258;28;19925;-68
2023/11/21 04:43:47;;;;;;;;;;;;;;;-4.97;51.13;99549.72;5036208;28;19921;-70
2023/11/21 04:46:13;;;;;;;;;;;;;;;-4.93;51.31;99549.94;5033338;28;19939;-67
2023/11/21 04:48:39;;;;;;;;;;;;;;;-4.84;51.50;99547.84;5035705;28;19921;-68
2023/11/21 04:51:05;;;;;;;;;;;;;;;-4.81;51.35;99544.56;5033737;28;20023;-68
2023/11/21 04:53:34;;;;;;;;;;;;;;;-4.77;50.71;99541.41;5033106;28;20457;-68
2023/11/21 04:56:00;;;;;;;;;;;;;;;-4.70;51.12;99534.94;5034297;28;19941;-67
2023/11/21 04:58:26;;;;;;;;;;;;;;;-4.68;50.94;99540.97;5049870;28;19928;-67
2023/11/21 05:00:52;;;;;;;;;;;;;;;-4.70;51.27;99538.38;5034162;28;19921;-68
2023/11/21 05:03:23;;;;;;;;;;;;;;;-4.73;50.88;99539.88;5040455;28;19927;-68
2023/11/21 05:05:49;;;;;;;;;;;;;;;-4.79;50.69;99553.13;5030435;28;20016;-69
2023/11/21 05:08:15;;;;;;;;;;;;;;;-4.87;50.89;99555.31;5018298;28;19963;-70
2023/11/21 05:10:41;;;;;;;;;;;;;;;-4.77;50.98;99561.72;5016773;28;19925;-82
2023/11/21 05:13:10;;;;;;;;;;;;;;;-4.73;51.09;99556.00;5017885;28;19925;-71
2023/11/21 05:15:36;;;;;;;;;;;;;;;-4.69;51.03;99554.47;5031931;28;19927;-72
2023/11/21 05:18:02;;;;;;;;;;;;;;;-4.61;51.18;99560.78;5013108;28;19963;-72
2023/11/21 05:20:28;;;;;;;;;;;;;;;-4.52;51.05;99562.03;5029092;28;20381;-72
2023/11/21 05:22:54;;;;;;;;;;;;;;;-4.52;50.82;99556.97;5039566;28;20471;-72
2023/11/21 05:25:27;;;;;;;;;;;;;;;-4.51;50.83;99564.63;5033683;28;21419;-71
2023/11/21 05:27:54;;;;;;;;;;;;;;;-4.52;50.90;99574.75;5038865;28;20082;-71
2023/11/21 05:30:21;;;;;;;;;;;;;;;-4.53;50.90;99571.31;5033692;28;19932;-72
2023/11/21 05:32:47;;;;;;;;;;;;;;;-4.49;50.76;99570.66;5048938;28;19920;-71
2023/11/21 05:35:15;;;;;;;;;;;;;;;-4.48;50.78;99562.25;5034419;28;19925;-71
2023/11/21 05:37:42;;;;;;;;;;;;;;;-4.52;50.88;99552.72;5032384;28;19936;-72
2023/11/21 05:40:10;;;;;;;;;;;;;;;-4.50;50.56;99557.88;5032944;28;19956;-71
2023/11/21 05:42:38;;;;;;;;;;;;;;;-4.45;50.94;99562.41;5020991;28;20012;-71
2023/11/21 05:45:11;;;;;;;;;;;;;;;-4.50;50.52;99562.94;5034716;28;19921;-71
2023/11/21 05:47:40;;;;;;;;;;;;;;;-4.51;50.83;99562.09;5034440;28;20311;-72
2023/11/21 05:50:10;;;;;;;;;;;;;;;-4.52;51.00;99572.19;5032676;28;19932;-71
2023/11/21 05:52:37;;;;;;;;;;;;;;;-4.58;50.78;99582.91;5033726;28;20021;-71
2023/11/21 05:55:07;;;;;;;;;;;;;;;-4.54;51.03;99582.28;5034188;28;20063;-71
2023/11/21 05:57:36;;;;;;;;;;;;;;;-4.54;51.32;99580.63;5032590;28;20321;-69
2023/11/21 06:00:20;;;;;;;;;;;;;;;-4.54;50.85;99585.69;5048580;28;19921;-70
2023/11/21 06:02:51;;;;;;;;;;;;;;;-4.57;50.58;99595.72;5034033;28;19971;-70
2023/11/21 06:05:18;;;;;;;;;;;;;;;-4.49;51.20;99590.09;5032950;28;19921;-71
2023/11/21 06:07:44;;;;;;;;;;;;;;;-4.45;51.31;99590.34;5036454;28;20670;-71
2023/11/21 06:10:12;;;;;;;;;;;;;;;-4.45;51.57;99592.88;5021706;28;19997;-71
2023/11/21 06:12:40;;;;;;;;;;;;;;;-4.45;51.21;99597.06;5033832;28;19928;-70
2023/11/21 06:15:09;;;;;;;;;;;;;;;-4.54;51.42;99607.66;5034864;28;20019;-71
2023/11/21 06:17:39;;;;;;;;;;;;;;;-4.47;51.61;99602.09;5033320;28;19925;-71
2023/11/21 06:20:13;;;;;;;;;;;;;;;-4.39;51.74;99603.31;5033104;28;19925;-71
2023/11/21 06:22:43;;;;;;;;;;;;;;;-4.37;51.22;99603.41;5033751;28;19921;-70
2023/11/21 06:25:09;;;;;;;;;;;;;;;-4.35;51.78;99601.81;5016434;28;19925;-70
2023/11/21 06:27:46;;;;;;;;;;;;;;;-4.21;51.84;99596.50;5051104;28;20004;-71
2023/11/21 06:30:13;;;;;;;;;;;;;;;-4.06;51.88;99604.84;5037852;28;19921;-72
2023/11/21 06:32:45;;;;;;;;;;;;;;;-3.91;51.63;99603.84;5055166;28;19928;-71
2023/11/21 06:35:16;;;;;;;;;;;;;;;-3.88;51.71;99601.44;5038377;28;19932;-71
2023/11/21 06:37:49;;;;;;;;;;;;;;;-3.95;51.91;99610.41;5038293;28;19936;-71
2023/11/21 06:40:20;;;;;;;;;;;;;;;-3.84;51.36;99610.91;5037134;28;19925;-72
2023/11/21 06:42:49;;;;;;;;;;;;;;;-3.80;51.83;99610.25;5037507;28;19967;-69
2023/11/21 06:45:16;;;;;;;;;;;;;;;-3.61;51.96;99608.56;5019596;28;19921;-70
2023/11/21 06:47:43;;;;;;;;;;;;;;;-3.44;51.64;99604.22;5020621;28;20315;-72
2023/11/21 06:50:10;;;;;;;;;;;;;;;-3.31;51.80;99603.09;5035079;28;19952;-74
2023/11/21 06:52:39;;;;;;;;;;;;;;;-3.19;51.54;99609.59;5050108;28;19921;-72
2023/11/21 06:55:10;;;;;;;;;;;;;;;-3.12;51.32;99592.91;5019796;28;19944;-71
2023/11/21 06:57:42;;;;;;;;;;;;;;;-3.20;51.16;99602.75;5021010;28;19928;-71
2023/11/21 07:00:14;;;;;;;;;;;;;;;-3.07;51.69;99616.88;5035479;28;19928;-71
2023/11/21 07:02:41;;;;;;;;;;;;;;;-2.75;51.96;99607.16;5016676;28;20419;-72
2023/11/21 07:05:14;;;;;;;;;;;;;;;-2.44;51.62;99600.78;5033525;28;19921;-71
2023/11/21 07:07:45;;;;;;;;;;;;;;;-2.31;51.36;99598.72;5039855;28;19940;-73
2023/11/21 07:10:12;;;;;;;;;;;;;;;-2.38;51.43;99587.41;5041812;28;19928;-72
2023/11/21 07:12:41;;;;;;;;;;;;;;;-2.55;51.23;99596.06;5049996;28;20328;-71
2023/11/21 07:15:13;;;;;;;;;;;;;;;-2.69;51.26;99595.50;5034855;28;20019;-73
2023/11/21 07:17:46;;;;;;;;;;;;;;;-2.76;51.57;99597.78;5033885;28;19931;-71
2023/11/21 07:20:13;;;;;;;;;;;;;;;-2.79;51.94;99600.22;5035268;28;19956;-71
2023/11/21 07:22:42;;;;;;;;;;;;;;;-2.77;51.40;99602.84;5032505;28;20408;-70
2023/11/21 07:25:10;;;;;;;;;;;;;;;-2.94;51.73;99604.66;5004738;28;19928;-71
2023/11/21 07:27:41;;;;;;;;;;;;;;;-3.07;51.64;99604.16;5033828;28;19952;-72
2023/11/21 07:30:13;;;;;;;;;;;;;;;-3.15;51.01;99604.63;5034850;28;19921;-72
2023/11/21 07:33:01;;;;;;;;;;;;;;;-3.13;51.56;99606.44;5035812;28;19944;-72
2023/11/21 07:35:27;;;;;;;;;;;;;;;-3.12;51.60;99614.94;5052363;28;19921;-71
2023/11/21 07:38:23;;;;;;;;;;;;;;;-3.00;51.55;99612.91;5039199;28;19928;-71
2023/11/21 07:40:56;;;;;;;;;;;;;;;-2.96;51.98;99613.91;5034838;28;19921;-70
2023/11/21 07:43:52;;;;;;;;;;;;;;;-2.78;51.79;99612.16;5017047;28;19928;-71
2023/11/21 07:49:30;;;;;;;;;;;;;;;-2.47;51.25;99602.34;5035388;28;19951;-74
2023/11/21 07:52:16;;;;;;;;;;;;;;;-2.58;50.79;99604.47;5042838;28;19924;-72
2023/11/21 07:54:42;;;;;;;;;;;;;;;-2.49;51.46;99596.31;5044610;28;20049;-71
2023/11/21 07:57:22;;;;;;;;;;;;;;;-2.37;51.22;99598.50;5038086;28;19949;-71
2023/11/21 07:59:53;;;;;;;;;;;;;;;-2.25;50.91;99596.41;5041689;28;19974;-69
2023/11/21 08:02:19;;;;;;;;;;;;;;;-2.16;50.75;99588.25;5017358;28;19921;-70
2023/11/21 08:04:49;;;;;;;;;;;;;;;-2.14;50.65;99590.06;5044484;28;19952;-69
2023/11/21 08:07:21;;;;;;;;;;;;;;;-2.03;50.26;99592.16;5021353;28;19944;-72
2023/11/21 08:09:56;;;;;;;;;;;;;;;-1.86;50.23;99593.66;5039947;28;20008;-71
2023/11/21 08:12:22;;;;;;;;;;;;;;;-1.64;50.54;99591.91;5044831;28;20032;-78
2023/11/21 08:14:54;;;;;;;;;;;;;;;-1.48;49.93;99592.50;5026332;28;19925;-71
2023/11/21 08:17:24;;;;;;;;;;;;;;;-1.52;50.51;99591.50;5058471;28;19925;-71
2023/11/21 08:19:58;;;;;;;;;;;;;;;-1.67;49.50;99595.22;5042075;28;19935;-73
2023/11/21 08:22:30;;;;;;;;;;;;;;;-1.77;49.54;99597.38;5026116;28;20007;-69
2023/11/21 08:24:57;;;;;;;;;;;;;;;-1.64;50.04;99596.16;5049371;28;19921;-71
2023/11/21 08:27:28;;;;;;;;;;;;;;;-1.56;50.05;99603.28;5024873;28;19963;-70
2023/11/21 08:30:02;;;;;;;;;;;;;;;-1.58;48.97;99602.34;5039459;28;19976;-71
2023/11/21 08:32:36;;;;;;;;;;;;;;;-1.70;49.46;99609.56;5041142;28;19949;-69
2023/11/21 08:35:05;;;;;;;;;;;;;;;-1.63;49.99;99595.34;5024597;28;19925;-71
2023/11/21 08:37:35;;;;;;;;;;;;;;;-1.58;49.53;99604.91;5042853;28;19928;-72
2023/11/21 08:40:17;;;;;;;;;;;;;;;-1.63;49.34;99597.91;5042301;28;20034;-71
2023/11/21 08:42:53;;;;;;;;;;;;;;;-1.60;49.37;99600.56;5060183;28;20209;-70
2023/11/21 08:45:32;;;;;;;;;;;;;;;-1.66;49.07;99603.78;5020054;28;20010;-70
2023/11/21 08:48:03;;;;;;;;;;;;;;;-1.67;49.12;99614.78;5041400;28;19929;-70
2023/11/21 08:50:30;;;;;;;;;;;;;;;-1.60;49.57;99608.22;5008704;28;19921;-70
2023/11/21 08:52:58;;;;;;;;;;;;;;;-1.60;49.34;99611.63;5056363;28;20752;-70
2023/11/21 08:55:25;;;;;;;;;;;;;;;-1.74;49.75;99608.56;5024092;28;19944;-72
2023/11/21 08:57:50;;;;;;;;;;;;;;;-1.95;49.37;99611.19;5058103;28;19909;-69
2023/11/21 09:00:18;;;;;;;;;;;;;;;-1.88;49.46;99612.28;5023266;28;19921;-68
2023/11/21 09:02:57;;;;;;;;;;;;;;;-1.90;48.65;99609.69;5043031;28;19921;-71
2023/11/21 09:05:44;;;;;;;;;;;;;;;-1.80;49.30;99610.03;5044380;28;19921;-79
2023/11/21 09:08:30;;;;;;;;;;;;;;;-1.76;48.92;99609.34;5025633;28;19917;-79
2023/11/21 09:11:02;;;;;;;;;;;;;;;-1.72;48.60;99619.69;5027229;28;19956;-83
2023/11/21 09:13:38;;;;;;;;;;;;;;;-1.54;49.50;99624.63;5032592;28;19904;-76
2023/11/21 09:16:10;;;;;;;;;;;;;;;-1.33;49.37;99617.72;5034398;28;19932;-79
2023/11/21 09:18:37;;;;;;;;;;;;;;;-1.46;48.81;99621.50;5051538;28;19932;-81
2023/11/21 09:21:09;;;;;;;;;;;;;;;-1.60;48.94;99621.84;5051019;28;19928;-82
2023/11/21 09:23:39;;;;;;;;;;;;;;;-1.74;48.88;99623.03;5070200;28;19940;-81
2023/11/21 09:26:05;;;;;;;;;;;;;;;-1.79;48.74;99625.41;5035153;28;19912;-81
2023/11/21 09:28:42;;;;;;;;;;;;;;;-1.95;48.30;99629.03;5019942;28;19939;-80
2023/11/21 09:31:22;;;;;;;;;;;;;;;-1.95;48.53;99636.69;5029536;28;19929;-81
2023/11/21 09:33:54;;;;;;;;;;;;;;;-2.08;48.22;99632.78;5022816;28;19984;-78
2023/11/21 09:36:42;;;;;;;;;;;;;;;-1.94;48.51;99625.69;5064739;28;19998;-81
2023/11/21 09:39:09;;;;;;;;;;;;;;;-1.80;48.29;99623.66;5048870;28;19968;-80
2023/11/21 09:42:05;;;;;;;;;;;;;;;-1.83;48.56;99619.28;5053265;28;19927;-81
2023/11/21 09:44:45;;;;;;;;;;;;;;;-1.61;48.75;99635.41;5051928;28;19920;-78
2023/11/21 09:47:20;;;;;;;;;;;;;;;-1.59;48.40;99633.78;5037045;28;19911;-81
2023/11/21 09:49:55;;;;;;;;;;;;;;;-1.49;48.34;99627.34;5054408;28;19932;-81
2023/11/21 09:52:26;;;;;;;;;;;;;;;-1.55;48.17;99634.81;5053844;28;19988;-82
2023/11/21 09:54:58;;;;;;;;;;;;;;;-1.73;48.10;99640.06;5066449;28;20375;-80
2023/11/21 09:57:31;;;;;;;;;;;;;;;-1.77;48.03;99641.66;5051158;28;19928;-80
2023/11/21 10:00:11;;;;;;;;;;;;;;;-1.92;47.86;99638.47;5050521;28;19983;-81
2023/11/21 10:02:40;;;;;;;;;;;;;;;-2.08;48.08;99637.91;5056416;28;19928;-77
2023/11/21 10:05:17;;;;;;;;;;;;;;;-2.08;47.70;99632.78;5032414;28;19921;-81
2023/11/21 10:08:02;;;;;;;;;;;;;;;-2.04;48.18;99629.56;5112874;23;19937;-72
2023/11/21 10:10:30;;;;;;;;;;;;;;;-2.12;48.10;99630.94;5041878;28;19921;-72
2023/11/21 10:13:06;;;;;;;;;;;;;;;-2.15;48.42;99641.88;5036732;28;19932;-73
2023/11/21 10:15:35;;;;;;;;;;;;;;;-2.14;47.76;99632.53;5039164;28;19921;-72
2023/11/21 10:18:03;;;;;;;;;;;;;;;-2.03;48.17;99636.41;5036303;28;20291;-73
2023/11/21 10:20:30;;;;;;;;;;;;;;;-2.00;47.51;99628.00;5046033;28;19928;-72
2023/11/21 10:23:07;;;;;;;;;;;;;;;-1.99;47.90;99622.06;5032924;28;19936;-72
2023/11/21 10:25:51;;;;;;;;;;;;;;;-2.12;47.48;99626.72;5029226;28;19921;-71
2023/11/21 10:28:37;;;;;;;;;;;;;;;-2.22;47.86;99622.03;5007960;28;19924;-74
2023/11/21 10:31:13;;;;;;;;;;;;;;;-2.20;48.15;99622.97;5044297;28;20288;-74
2023/11/21 10:33:39;;;;;;;;;;;;;;;-2.27;47.46;99633.72;5048324;28;19920;-73
2023/11/21 10:36:06;;;;;;;;;;;;;;;-2.34;47.98;99629.22;5033216;28;19975;-75
2023/11/21 10:38:40;;;;;;;;;;;;;;;-2.47;47.88;99623.59;5032309;28;19925;-74
2023/11/21 10:41:12;;;;;;;;;;;;;;;-2.43;47.19;99627.16;5032777;28;20046;-77
2023/11/21 10:43:53;;;;;;;;;;;;;;;-2.41;48.29;99622.97;5035153;28;19925;-78
2023/11/21 10:46:36;;;;;;;;;;;;;;;-2.50;48.12;99636.22;5017757;28;19960;-77
2023/11/21 10:49:06;;;;;;;;;;;;;;;-2.63;47.09;99632.28;5047624;28;19971;-78
2023/11/21 10:55:04;;;;;;;;;;;;;;;-2.76;48.21;99637.69;5185603;23;19959;-78
2023/11/21 10:57:34;;;;;;;;;;;;;;;-2.97;46.71;99643.63;4911847;29;19926;-75
2023/11/21 11:00:04;;;;;;;;;;;;;;;-3.05;47.73;99650.94;4952588;23;19970;-78
2023/11/21 11:02:32;;;;;;;;;;;;;;;-3.00;48.35;99643.47;4903299;29;19927;-74
2023/11/21 11:05:06;;;;;;;;;;;;;;;-2.93;47.99;99649.69;4935480;29;19918;-79
2023/11/21 11:07:37;;;;;;;;;;;;;;;-2.81;48.38;99644.25;4967670;23;19966;-81
2023/11/21 11:10:04;;;;;;;;;;;;;;;-2.77;48.31;99647.03;4952151;29;19982;-83
2023/11/21 11:12:31;;;;;;;;;;;;;;;-2.81;47.61;99645.16;4949717;29;19903;-84
2023/11/21 11:15:02;;;;;;;;;;;;;;;-2.78;48.30;99652.03;5634925;23;19931;-78
2023/11/21 11:17:32;;;;;;;;;;;;;;;-2.75;48.23;99657.25;4914000;29;19978;-77
2023/11/21 11:19:59;;;;;;;;;;;;;;;-2.68;47.87;99656.72;4907042;29;19914;-75
2023/11/21 11:22:38;;;;;;;;;;;;;;;-2.70;48.06;99660.00;4926667;29;19936;-77
2023/11/21 11:25:13;;;;;;;;;;;;;;;-2.81;47.93;99667.19;4927789;29;19927;-73
2023/11/21 11:28:00;;;;;;;;;;;;;;;-2.81;48.29;99669.72;4923181;29;19927;-76
2023/11/21 11:30:45;;;;;;;;;;;;;;;-2.80;47.95;99664.72;4926765;29;19923;-79
2023/11/21 11:33:37;;;;;;;;;;;;;;;-2.87;47.76;99663.56;4899276;29;19930;-77
2023/11/21 11:36:11;;;;;;;;;;;;;;;-2.90;48.22;99660.91;4906900;29;19970;-77
2023/11/21 11:38:39;;;;;;;;;;;;;;;-2.84;48.37;99656.84;4925819;29;19903;-76
2023/11/21 11:41:05;;;;;;;;;;;;;;;-2.86;48.09;99654.25;4911312;29;19935;-75
2023/11/21 11:43:45;;;;;;;;;;;;;;;-2.84;48.20;99655.19;4899637;29;19923;-78
2023/11/21 11:46:26;;;;;;;;;;;;;;;-2.96;47.48;99665.72;4927725;29;19935;-75
2023/11/21 11:49:05;;;;;;;;;;;;;;;-3.06;48.21;99664.47;4907201;29;20413;-75
2023/11/21 11:51:35;;;;;;;;;;;;;;;-3.11;47.45;99667.63;4891551;29;20291;-76
2023/11/21 11:54:10;;;;;;;;;;;;;;;-3.12;47.89;99671.81;4904738;29;19907;-76
2023/11/21 11:56:39;;;;;;;;;;;;;;;-3.24;48.00;99671.28;4895147;29;19973;-76
2023/11/21 11:59:10;;;;;;;;;;;;;;;-3.40;47.59;99668.03;4890846;29;19980;-75
2023/11/21 12:01:36;;;;;;;;;;;;;;;-3.56;48.43;99671.59;4921196;29;20246;-72
2023/11/21 12:04:40;;;;;;;;;;;;;;;-3.56;48.25;99671.59;4926460;29;19923;-71
2023/11/21 12:07:14;;;;;;;;;;;;;;;-3.50;48.52;99671.84;4888376;29;20280;-73
2023/11/21 12:12:27;;;;;;;;;;;;;;;-3.46;48.71;99677.97;4923112;29;19930;-75
2023/11/21 12:14:56;;;;;;;;;;;;;;;-3.43;48.25;99675.56;4907290;29;20026;-73
2023/11/21 12:17:23;;;;;;;;;;;;;;;-3.46;48.29;99677.97;4917489;29;19927;-75
2023/11/21 12:19:52;;;;;;;;;;;;;;;-3.40;48.32;99695.16;4907262;29;20056;-74
2023/11/21 12:22:23;;;;;;;;;;;;;;;-3.36;47.77;99690.28;4919809;29;19904;-76
2023/11/21 12:25:08;;;;;;;;;;;;;;;-3.29;48.27;99688.03;4919037;29;19923;-74
2023/11/21 12:27:44;;;;;;;;;;;;;;;-3.34;47.97;99686.13;4907177;29;19935;-73
2023/11/21 12:30:22;;;;;;;;;;;;;;;-3.35;48.01;99686.09;4915336;29;19930;-73
2023/11/21 12:33:08;;;;;;;;;;;;;;;-3.36;48.12;99687.72;4918201;29;19923;-73
2023/11/21 12:35:40;;;;;;;;;;;;;;;-3.37;48.08;99690.22;4916322;29;19934;-74
2023/11/21 12:38:08;;;;;;;;;;;;;;;-3.36;47.79;99684.34;4908417;29;19933;-75
2023/11/21 12:40:50;;;;;;;;;;;;;;;-3.31;47.93;99687.97;4917730;29;19923;-74
2023/11/21 12:43:28;;;;;;;;;;;;;;;-3.38;48.18;99691.03;4914025;29;20398;-75
2023/11/21 12:46:15;;;;;;;;;;;;;;;-3.39;47.98;99691.81;4884277;29;19954;-73
2023/11/21 12:48:45;;;;;;;;;;;;;;;-3.42;47.97;99689.13;4918339;29;20006;-75
2023/11/21 12:51:16;;;;;;;;;;;;;;;-3.47;48.22;99688.94;4905893;29;19923;-75
2023/11/21 12:53:42;;;;;;;;;;;;;;;-3.45;48.27;99691.53;4914745;29;20030;-75
2023/11/21 12:56:12;;;;;;;;;;;;;;;-3.44;48.11;99694.16;4897191;29;20704;-74
2023/11/21 12:58:53;;;;;;;;;;;;;;;-3.50;48.43;99697.28;4913129;29;19951;-74
2023/11/21 13:01:42;;;;;;;;;;;;;;;-3.59;47.65;99703.63;4889534;29;20390;-73
2023/11/21 13:07:14;;;;;;;;;;;;;;;-3.61;48.74;99697.59;4915016;29;19931;-73
2023/11/21 13:09:52;;;;;;;;;;;;;;;-3.69;48.78;99700.66;4898939;29;20442;-74
2023/11/21 13:12:24;;;;;;;;;;;;;;;-3.69;49.20;99705.75;4884238;29;19927;-73
2023/11/21 13:14:53;;;;;;;;;;;;;;;-3.72;49.30;99709.81;4912201;29;19927;-75
2023/11/21 13:17:24;;;;;;;;;;;;;;;-3.73;48.96;99719.13;4899999;29;19924;-75
2023/11/21 13:19:50;;;;;;;;;;;;;;;-3.74;49.17;99721.56;4898615;29;20393;-74